This is the latest recevied weather packets stored in our database for station/object AG1T-20. If no packets are shown the sender has not sent any weather packets the latest 10 day(s).
| Time | Temp. | Humidity | Pressure | Rain* | Wind** | Luminosity | Snow |
|---|---|---|---|---|---|---|---|
| 1787455804 | 25° C | 44% | 1020.6 hPa | 0 mm | - | 0 W/m² | - |
| 1787455204 | 25.56° C | 41% | 1020.6 hPa | 0 mm | - | 0 W/m² | - |
| 1787454605 | 26.67° C | 36% | 1020.6 hPa | 0 mm | - | 0 W/m² | - |
| 1787454005 | 27.22° C | 35% | 1020.6 hPa | 0 mm | - | 0 W/m² | - |
| 1787453405 | 26.67° C | 37% | 1020.3 hPa | 0 mm | - | 0 W/m² | - |
| 1787452805 | 27.22° C | 35% | 1020.3 hPa | 0 mm | - | 0 W/m² | - |
| 1787452205 | 27.78° C | 34% | 1020.3 hPa | 0 mm | - | 0 W/m² | - |
| 1787451605 | 27.78° C | 34% | 1020.3 hPa | 0 mm | - | 0 W/m² | - |
| 1787451005 | 29.44° C | 34% | 1020.3 hPa | 0 mm | - | 1 W/m² | - |
| 1787450405 | 27.78° C | 38% | 1020.3 hPa | 0 mm | - | 1 W/m² | - |
| 1787449807 | 27.78° C | 40% | 1020.1 hPa | 0 mm | - | 2 W/m² | - |
| 1787449204 | 27.78° C | 38% | 1020.1 hPa | 0 mm | - | 9 W/m² | - |
| 1787448604 | 28.33° C | 37% | 1020.1 hPa | 0 mm | - | 15 W/m² | - |
| 1787448005 | 28.33° C | 36% | 1020.1 hPa | 0 mm | - | 20 W/m² | - |
| 1787447405 | 28.89° C | 35% | 1020.1 hPa | 0 mm | - | 21 W/m² | - |
| 1787446804 | 30° C | 31% | 1020.1 hPa | 0 mm | - | 20 W/m² | - |
| 1787446205 | 31.11° C | 28% | 1020 hPa | 0 mm | - | 19 W/m² | - |
| 1787445605 | 32.22° C | 27% | 1020 hPa | 0 mm | - | 21 W/m² | - |
| 1787445005 | 33.33° C | 27% | 1020 hPa | 0 mm | - | 64 W/m² | - |
| 1787444405 | 33.33° C | 25% | 1020 hPa | 0 mm | - | 82 W/m² | - |
| 1787443805 | 34.44° C | 24% | 1020 hPa | 0 mm | - | 97 W/m² | - |
| 1787443205 | 33.33° C | 27% | 1020 hPa | 0 mm | - | 88 W/m² | - |
| 1787442605 | 33.33° C | 25% | 1020.5 hPa | 0 mm | - | 42 W/m² | - |
| 1787442005 | 35° C | 25% | 1020.5 hPa | 0 mm | - | 139 W/m² | - |
| 1787441405 | 34.44° C | 25% | 1020.5 hPa | 0 mm | - | 169 W/m² | - |
* Rain latest hour (hover to see other rain measurements)
** Current wind speed in m/s (hover to see current wind gust speed)